Time;durP1;ratioP1;P1;durP2;ratioP2;P2;SDS_P1;SDS_P2;PMS_P1;PMS_P2;Temp;Humidity;BMP_temperature;BMP_pressure;BME280_temperature;BME280_humidity;BME280_pressure;Samples;Min_cycle;Max_cycle;Signal;HPM_P1;HPM_P2
2022/05/15 00:02:34;;;;;;;28.90;12.30;;;11.90;99.90;;;;;;5037980;28;20048;-84
2022/05/15 00:04:59;;;;;;;28.52;12.10;;;11.90;99.90;;;;;;5037625;28;20484;-85
2022/05/15 00:07:25;;;;;;;28.38;12.30;;;11.90;99.90;;;;;;5053461;28;20097;-85
2022/05/15 00:09:51;;;;;;;34.85;12.57;;;11.90;99.90;;;;;;5053869;28;20396;-84
2022/05/15 00:12:17;;;;;;;30.05;12.02;;;11.80;99.90;;;;;;5053429;28;20032;-83
2022/05/15 00:14:44;;;;;;;34.78;12.65;;;11.80;99.90;;;;;;5053149;28;20045;-85
2022/05/15 00:17:10;;;;;;;31.45;12.93;;;11.70;99.90;;;;;;5036511;28;20117;-84
2022/05/15 00:19:36;;;;;;;30.77;11.75;;;11.70;99.90;;;;;;5053476;28;20446;-84
2022/05/15 00:22:01;;;;;;;30.70;12.17;;;11.60;99.90;;;;;;5051431;28;20120;-84
2022/05/15 00:24:28;;;;;;;32.85;11.63;;;11.60;99.90;;;;;;5020094;28;20294;-84
2022/05/15 00:26:56;;;;;;;;;;;11.60;99.90;;;;;;5054209;28;20496;-84
2022/05/15 00:29:22;;;;;;;21.50;9.48;;;11.60;99.90;;;;;;5052987;28;19917;-84
2022/05/15 00:31:48;;;;;;;32.20;11.87;;;11.60;99.90;;;;;;5036644;28;20032;-84
2022/05/15 00:34:13;;;;;;;24.75;11.27;;;11.60;99.90;;;;;;5020154;28;20047;-84
2022/05/15 00:36:39;;;;;;;31.92;12.30;;;11.60;99.90;;;;;;5036546;28;20087;-83
2022/05/15 00:39:06;;;;;;;33.10;11.55;;;11.50;99.90;;;;;;5053357;28;20037;-84
2022/05/15 00:41:33;;;;;;;36.20;13.30;;;11.40;99.90;;;;;;5036566;28;20033;-84
2022/05/15 00:43:59;;;;;;;32.85;12.50;;;11.40;99.90;;;;;;5050983;28;20190;-83
2022/05/15 00:46:28;;;;;;;;;;;11.40;99.90;;;;;;5020142;28;20028;-83
2022/05/15 00:48:56;;;;;;;30.15;11.60;;;11.30;99.90;;;;;;5053294;28;19927;-83
2022/05/15 00:51:28;;;;;;;33.13;12.38;;;11.30;99.90;;;;;;5050300;28;20155;-83
2022/05/15 00:54:00;;;;;;;36.08;13.18;;;11.20;99.90;;;;;;5052936;28;20115;-84
2022/05/15 00:56:28;;;;;;;31.38;13.27;;;11.20;99.90;;;;;;5052548;28;20036;-84
2022/05/15 00:58:59;;;;;;;30.42;11.80;;;11.10;99.90;;;;;;5053009;28;20044;-84
2022/05/15 01:01:25;;;;;;;29.92;11.30;;;11.10;99.90;;;;;;5035971;28;20070;-83
2022/05/15 01:03:51;;;;;;;27.65;12.07;;;11.10;99.90;;;;;;5035423;28;20107;-83
2022/05/15 01:06:17;;;;;;;30.67;11.52;;;11.10;99.90;;;;;;5036191;28;20498;-84
2022/05/15 01:08:43;;;;;;;26.00;10.57;;;11.10;99.90;;;;;;5053074;28;20481;-84
2022/05/15 01:11:13;;;;;;;30.30;10.50;;;11.10;99.90;;;;;;5035852;28;20048;-83
2022/05/15 01:13:42;;;;;;;25.90;9.88;;;11.10;99.90;;;;;;5084235;28;20859;-83
2022/05/15 01:16:10;;;;;;;31.13;10.23;;;11.00;99.90;;;;;;5053175;28;20369;-83
2022/05/15 01:18:39;;;;;;;32.05;10.85;;;11.00;99.90;;;;;;5052902;28;20133;-86
2022/05/15 01:21:26;;;;;;;25.73;10.45;;;11.00;99.90;;;;;;5050553;28;20047;-82
2022/05/15 01:23:52;;;;;;;28.02;10.30;;;11.00;99.90;;;;;;5052792;28;20511;-83
2022/05/15 01:26:20;;;;;;;27.85;10.50;;;11.00;99.90;;;;;;5037359;28;20476;-84
2022/05/15 01:28:46;;;;;;;32.35;10.18;;;11.00;99.90;;;;;;5056679;28;20032;-84
2022/05/15 01:31:13;;;;;;;29.67;9.15;;;10.90;99.90;;;;;;5058970;28;20032;-84
2022/05/15 01:33:39;;;;;;;21.88;8.52;;;11.00;99.90;;;;;;5059105;28;20036;-85
2022/05/15 01:36:06;;;;;;;25.83;8.45;;;11.00;99.90;;;;;;5042734;28;20485;-85
2022/05/15 01:38:33;;;;;;;21.33;7.95;;;10.90;99.90;;;;;;5040311;28;20054;-84
2022/05/15 01:40:59;;;;;;;20.98;7.65;;;10.90;99.90;;;;;;5059189;28;20047;-84
2022/05/15 01:43:25;;;;;;;23.67;7.25;;;10.90;99.90;;;;;;5025708;28;20484;-84
2022/05/15 01:45:50;;;;;;;27.27;7.83;;;10.80;99.90;;;;;;5059159;28;20062;-84
2022/05/15 01:48:16;;;;;;;30.03;8.10;;;10.80;99.90;;;;;;5025685;28;20294;-84
2022/05/15 01:50:42;;;;;;;25.70;7.70;;;10.80;99.90;;;;;;5058991;28;20441;-84
2022/05/15 01:53:08;;;;;;;20.95;8.07;;;10.70;99.90;;;;;;5059631;28;20031;-84
2022/05/15 01:55:34;;;;;;;19.42;7.65;;;10.70;99.90;;;;;;5042367;28;20040;-84
2022/05/15 01:57:59;;;;;;;27.00;8.53;;;10.60;99.90;;;;;;5026186;28;20037;-84
2022/05/15 02:00:26;;;;;;;23.90;8.07;;;10.60;99.90;;;;;;5042186;28;20662;-84
2022/05/15 02:02:52;;;;;;;19.77;7.93;;;10.60;99.90;;;;;;5042550;28;20068;-84
2022/05/15 02:05:19;;;;;;;24.98;8.90;;;10.60;99.90;;;;;;5025256;28;20059;-85
2022/05/15 02:07:47;;;;;;;29.13;9.10;;;10.50;99.90;;;;;;5059334;28;20492;-84
2022/05/15 02:10:13;;;;;;;22.02;8.52;;;10.50;99.90;;;;;;5026034;28;20385;-84
2022/05/15 02:12:39;;;;;;;;;;;10.50;99.90;;;;;;5026312;28;20032;-84
2022/05/15 02:15:06;;;;;;;28.88;9.13;;;10.50;99.90;;;;;;5042491;28;20011;-84
2022/05/15 02:17:32;;;;;;;25.05;8.05;;;10.40;99.90;;;;;;5058489;28;20523;-84
2022/05/15 02:19:59;;;;;;;30.83;8.60;;;10.40;99.90;;;;;;5042328;28;20052;-83
2022/05/15 02:22:24;;;;;;;;;;;10.30;99.90;;;;;;5042212;28;20036;-83
2022/05/15 02:24:50;;;;;;;22.30;8.05;;;10.30;99.90;;;;;;5058755;28;20410;-84
2022/05/15 02:27:16;;;;;;;27.30;8.73;;;10.30;99.90;;;;;;5041814;28;20103;-84
2022/05/15 02:29:42;;;;;;;30.15;8.88;;;10.30;99.90;;;;;;5059071;28;20036;-84
2022/05/15 02:32:08;;;;;;;21.35;8.55;;;10.30;99.90;;;;;;5025532;28;20047;-84
2022/05/15 02:34:34;;;;;;;26.25;8.32;;;10.30;99.90;;;;;;5025394;28;20055;-83
2022/05/15 02:37:00;;;;;;;23.20;8.05;;;10.20;99.90;;;;;;5042248;28;20037;-84
2022/05/15 02:39:26;;;;;;;30.48;9.63;;;10.30;99.90;;;;;;5037808;28;20043;-83
2022/05/15 02:41:52;;;;;;;23.83;8.88;;;10.20;99.90;;;;;;5055360;28;20492;-84
2022/05/15 02:44:17;;;;;;;27.25;8.43;;;10.10;99.90;;;;;;5054895;28;20518;-84
2022/05/15 02:46:43;;;;;;;21.50;7.83;;;10.00;99.90;;;;;;5038907;28;20063;-84
2022/05/15 02:51:53;;;;;;;24.58;8.50;;;10.00;99.90;;;;;;5054506;28;20119;-85
2022/05/15 02:54:19;;;;;;;22.50;8.27;;;10.00;99.90;;;;;;5054806;28;20082;-84
2022/05/15 02:56:45;;;;;;;26.90;8.18;;;10.00;99.90;;;;;;5055348;28;20043;-84
2022/05/15 02:59:11;;;;;;;25.02;8.25;;;9.90;99.90;;;;;;5038751;28;20123;-84
2022/05/15 03:01:37;;;;;;;29.38;9.05;;;10.00;99.90;;;;;;5054541;28;20127;-85
2022/05/15 03:04:04;;;;;;;28.45;9.68;;;10.00;99.90;;;;;;5055108;28;20508;-84
2022/05/15 03:06:30;;;;;;;28.38;8.88;;;10.00;99.90;;;;;;5054378;28;20111;-85
2022/05/15 03:08:57;;;;;;;23.10;8.23;;;10.00;99.90;;;;;;5038634;28;20416;-84
2022/05/15 03:11:23;;;;;;;24.42;9.30;;;9.90;99.90;;;;;;5053472;28;20071;-84
2022/05/15 03:13:49;;;;;;;;;;;9.90;99.90;;;;;;5054336;28;20220;-84
2022/05/15 03:16:18;;;;;;;24.27;8.00;;;9.90;99.90;;;;;;5037787;28;19995;-84
2022/05/15 03:18:50;;;;;;;28.35;8.20;;;9.90;99.90;;;;;;5038030;28;20048;-85
2022/05/15 03:21:29;;;;;;;24.75;9.15;;;9.90;99.90;;;;;;5055026;28;20488;-84
2022/05/15 03:23:59;;;;;;;30.42;8.60;;;9.90;99.90;;;;;;5052886;28;20101;-85
2022/05/15 03:26:26;;;;;;;20.88;8.20;;;9.90;99.90;;;;;;5037501;28;20400;-84
2022/05/15 03:28:52;;;;;;;24.20;8.30;;;9.90;99.90;;;;;;5054373;28;20043;-83
2022/05/15 03:31:18;;;;;;;24.30;8.07;;;9.90;99.90;;;;;;5021548;28;20036;-84
2022/05/15 03:33:43;;;;;;;25.23;7.97;;;9.90;99.90;;;;;;5021247;28;20041;-85
2022/05/15 03:36:12;;;;;;;25.73;7.90;;;9.90;99.90;;;;;;5037791;28;20045;-85
2022/05/15 03:38:39;;;;;;;24.15;8.15;;;10.00;99.90;;;;;;5037476;28;20974;-84
2022/05/15 03:41:05;;;;;;;29.30;8.02;;;9.80;99.90;;;;;;5037778;28;20136;-83
2022/05/15 03:43:30;;;;;;;27.38;8.82;;;9.90;99.90;;;;;;5037237;28;20119;-83
2022/05/15 03:45:56;;;;;;;27.87;8.80;;;9.90;99.90;;;;;;5054084;28;20041;-83
2022/05/15 03:48:22;;;;;;;26.55;8.38;;;9.80;99.90;;;;;;5053732;28;20477;-84
2022/05/15 03:50:47;;;;;;;24.35;7.68;;;9.80;99.90;;;;;;5020163;28;20039;-84
2022/05/15 03:53:13;;;;;;;27.37;7.40;;;9.80;99.90;;;;;;5054276;28;20072;-84
2022/05/15 03:55:39;;;;;;;34.55;9.15;;;9.80;99.90;;;;;;5037162;28;20296;-84
2022/05/15 03:58:05;;;;;;;24.60;8.35;;;9.80;99.90;;;;;;5037444;28;20080;-84
2022/05/15 04:00:31;;;;;;;27.42;8.55;;;9.80;99.90;;;;;;5053826;28;20119;-85
2022/05/15 04:02:56;;;;;;;20.80;8.00;;;9.80;99.90;;;;;;5020838;28;20051;-83
2022/05/15 04:05:22;;;;;;;32.40;8.52;;;9.80;99.90;;;;;;5036867;28;20412;-83
2022/05/15 04:07:50;;;;;;;30.27;8.82;;;10.20;99.90;;;;;;5004804;28;20072;-84
2022/05/15 04:10:19;;;;;;;26.65;8.05;;;10.00;99.90;;;;;;5054152;28;20051;-83
2022/05/15 04:12:45;;;;;;;31.95;8.85;;;9.90;99.90;;;;;;5053285;28;20064;-84
2022/05/15 04:15:12;;;;;;;28.37;8.83;;;9.90;99.90;;;;;;5053586;28;20080;-84
2022/05/15 04:17:46;;;;;;;28.60;7.75;;;9.80;99.90;;;;;;5052936;28;20325;-84
2022/05/15 04:20:14;;;;;;;26.20;7.65;;;9.80;99.90;;;;;;5053827;28;20497;-83
2022/05/15 04:22:40;;;;;;;27.80;7.65;;;9.90;99.90;;;;;;5052996;28;20111;-85
2022/05/15 04:25:06;;;;;;;29.80;8.13;;;9.90;99.90;;;;;;5053287;28;20146;-84
2022/05/15 04:27:32;;;;;;;28.42;8.07;;;9.90;99.90;;;;;;5036593;28;20492;-84
2022/05/15 04:29:58;;;;;;;26.95;9.00;;;9.90;99.90;;;;;;5053608;28;20044;-84
2022/05/15 04:32:23;;;;;;;31.93;8.90;;;10.00;99.90;;;;;;5037002;28;20040;-84
2022/05/15 04:34:49;;;;;;;29.33;8.60;;;10.00;99.90;;;;;;5053141;28;20037;-85
2022/05/15 04:37:15;;;;;;;23.67;8.20;;;10.00;99.90;;;;;;5053270;28;20294;-85
2022/05/15 04:39:41;;;;;;;29.03;9.53;;;10.00;99.90;;;;;;5036119;28;20496;-85
2022/05/15 04:42:08;;;;;;;25.92;9.32;;;9.90;99.90;;;;;;5036870;28;20278;-84
2022/05/15 04:44:33;;;;;;;;;;;10.00;99.90;;;;;;5036642;28;20102;-84
2022/05/15 04:46:59;;;;;;;28.83;9.15;;;10.00;99.90;;;;;;5053093;28;19916;-84
2022/05/15 04:49:25;;;;;;;31.67;9.80;;;10.10;99.90;;;;;;5017749;28;20501;-83
2022/05/15 04:51:50;;;;;;;31.53;9.40;;;10.20;99.90;;;;;;5036277;28;20549;-85
2022/05/15 04:54:16;;;;;;;24.63;8.33;;;10.10;99.90;;;;;;5020063;28;20539;-85
2022/05/15 04:56:42;;;;;;;29.27;9.63;;;10.20;99.90;;;;;;5035843;28;20389;-84
2022/05/15 04:59:08;;;;;;;26.25;8.52;;;10.20;99.90;;;;;;5053192;28;20299;-84
2022/05/15 05:01:33;;;;;;;25.70;8.30;;;10.20;99.90;;;;;;5052335;28;20127;-83
2022/05/15 05:03:59;;;;;;;28.37;8.57;;;10.30;99.90;;;;;;5036929;28;20097;-85
2022/05/15 05:06:26;;;;;;;24.02;8.80;;;10.40;99.90;;;;;;5036199;28;20035;-84
2022/05/15 05:08:52;;;;;;;26.33;8.68;;;10.40;99.90;;;;;;5035441;28;20032;-84
2022/05/15 05:11:18;;;;;;;20.00;7.40;;;10.40;99.90;;;;;;5052473;28;20036;-84
2022/05/15 05:13:43;;;;;;;22.05;8.27;;;10.50;99.90;;;;;;5052165;28;20091;-85
2022/05/15 05:16:10;;;;;;;23.87;7.90;;;10.50;99.90;;;;;;5052548;28;20040;-85
2022/05/15 05:18:35;;;;;;;26.80;8.15;;;10.60;99.90;;;;;;5051981;28;20059;-83
2022/05/15 05:21:01;;;;;;;29.05;8.00;;;10.70;99.90;;;;;;5052345;28;20040;-86
2022/05/15 05:23:27;;;;;;;25.63;8.77;;;10.70;99.90;;;;;;5035819;28;20070;-84
2022/05/15 05:25:53;;;;;;;28.10;9.17;;;10.80;99.90;;;;;;5035612;28;20515;-84
2022/05/15 05:28:18;;;;;;;33.58;11.18;;;11.00;99.90;;;;;;5036082;28;20028;-84
2022/05/15 05:30:45;;;;;;;30.40;9.85;;;11.10;99.90;;;;;;5035671;28;20060;-84
2022/05/15 05:33:10;;;;;;;29.83;8.80;;;11.10;99.90;;;;;;5052448;28;20047;-85
2022/05/15 05:35:37;;;;;;;22.17;7.68;;;11.40;99.90;;;;;;5019442;28;20032;-85
2022/05/15 05:38:04;;;;;;;23.40;7.55;;;11.40;99.90;;;;;;5052819;28;20444;-84
2022/05/15 05:40:30;;;;;;;22.48;6.90;;;11.60;99.90;;;;;;5019393;28;20040;-84
2022/05/15 05:42:56;;;;;;;28.50;7.68;;;11.70;99.90;;;;;;5052010;28;20518;-84
2022/05/15 05:45:21;;;;;;;24.13;7.45;;;11.80;99.90;;;;;;5052438;28;20083;-84
2022/05/15 05:47:49;;;;;;;23.23;7.45;;;11.90;99.90;;;;;;5051801;28;20132;-85
2022/05/15 05:50:18;;;;;;;18.92;6.93;;;12.00;99.90;;;;;;5052540;28;20071;-84
2022/05/15 05:52:44;;;;;;;26.75;6.72;;;12.10;99.90;;;;;;5035111;28;20032;-86
2022/05/15 05:55:13;;;;;;;22.52;7.45;;;12.20;99.90;;;;;;5035875;28;20036;-84
2022/05/15 05:57:40;;;;;;;21.08;6.57;;;12.20;99.90;;;;;;5051896;28;20044;-84
2022/05/15 06:00:09;;;;;;;20.00;6.47;;;12.50;99.90;;;;;;5052249;28;20040;-84
2022/05/15 06:02:35;;;;;;;18.88;6.07;;;12.90;99.90;;;;;;5051661;28;20162;-84
2022/05/15 06:05:00;;;;;;;16.80;5.23;;;13.30;99.90;;;;;;5052544;28;20119;-84
2022/05/15 06:07:27;;;;;;;17.27;5.03;;;13.40;99.90;;;;;;5035881;28;20275;-84
2022/05/15 06:09:54;;;;;;;19.08;5.60;;;13.70;99.90;;;;;;5052190;28;20178;-84
2022/05/15 06:12:23;;;;;;;19.70;5.60;;;14.10;99.90;;;;;;5052121;28;20037;-85
2022/05/15 06:14:51;;;;;;;18.15;5.43;;;14.40;99.90;;;;;;5038618;28;20069;-84
2022/05/15 06:17:25;;;;;;;17.58;5.70;;;14.60;99.90;;;;;;5039247;28;20496;-84
2022/05/15 06:19:51;;;;;;;19.33;5.30;;;14.90;99.90;;;;;;5055441;28;20125;-85
2022/05/15 06:22:17;;;;;;;19.92;4.95;;;15.00;99.90;;;;;;5039488;28;20554;-85
2022/05/15 06:24:43;;;;;;;20.55;5.32;;;15.10;99.90;;;;;;5055325;28;20055;-85
2022/05/15 06:27:09;;;;;;;17.65;4.68;;;15.00;99.90;;;;;;5021841;28;20123;-84
2022/05/15 06:29:36;;;;;;;;;;;15.30;99.90;;;;;;5039261;28;20036;-83
2022/05/15 06:32:02;;;;;;;17.50;5.07;;;15.60;99.90;;;;;;5055953;28;20365;-83
2022/05/15 06:34:28;;;;;;;17.77;5.30;;;15.80;99.90;;;;;;5039392;28;20119;-84
2022/05/15 06:36:54;;;;;;;17.77;5.00;;;16.10;99.90;;;;;;5039006;28;20170;-83
2022/05/15 06:39:19;;;;;;;19.80;5.43;;;16.10;99.90;;;;;;5039024;28;20518;-84
2022/05/15 06:41:49;;;;;;;14.40;4.40;;;16.10;99.90;;;;;;5022550;28;20037;-85
2022/05/15 06:44:16;;;;;;;20.88;5.28;;;16.60;99.90;;;;;;5055447;28;20417;-84
2022/05/15 06:46:42;;;;;;;18.38;5.25;;;16.60;99.90;;;;;;5037461;28;20075;-85
2022/05/15 06:49:07;;;;;;;17.95;5.07;;;16.80;99.90;;;;;;5051944;28;20468;-85
2022/05/15 06:51:33;;;;;;;17.65;4.78;;;16.70;99.90;;;;;;5037920;28;20113;-84
2022/05/15 06:53:59;;;;;;;18.60;4.60;;;17.00;99.90;;;;;;5037552;28;20111;-83
2022/05/15 06:59:09;;;;;;;15.10;4.50;;;17.00;99.90;;;;;;5040046;28;19922;-84
2022/05/15 07:01:35;;;;;;;18.77;4.82;;;17.10;99.90;;;;;;5038189;28;20037;-83
2022/05/15 07:04:01;;;;;;;16.48;4.47;;;17.30;99.90;;;;;;5054659;28;20032;-84
2022/05/15 07:06:26;;;;;;;14.68;4.70;;;17.40;99.90;;;;;;5054463;28;20036;-83
2022/05/15 07:08:52;;;;;;;12.93;4.07;;;17.70;99.90;;;;;;5053822;28;20038;-85
2022/05/15 07:11:18;;;;;;;16.38;4.57;;;17.90;99.90;;;;;;5038135;28;20071;-84
2022/05/15 07:13:44;;;;;;;17.83;4.15;;;17.90;99.90;;;;;;5038105;28;20036;-82
2022/05/15 07:16:11;;;;;;;16.27;4.40;;;18.00;99.90;;;;;;5054782;28;20067;-83
2022/05/15 07:18:37;;;;;;;13.65;3.85;;;17.90;99.90;;;;;;5038141;28;20076;-83
2022/05/15 07:21:04;;;;;;;11.45;3.60;;;18.10;99.90;;;;;;5037903;28;20052;-83
2022/05/15 07:23:30;;;;;;;19.75;3.75;;;18.20;99.90;;;;;;5055005;28;20047;-82
2022/05/15 07:25:55;;;;;;;;;;;18.30;99.90;;;;;;5054434;28;20037;-81
2022/05/15 07:28:21;;;;;;;15.77;3.83;;;18.30;99.90;;;;;;5054838;28;19965;-83
2022/05/15 07:30:49;;;;;;;15.50;4.15;;;18.30;99.90;;;;;;5037553;28;20036;-82
2022/05/15 07:33:19;;;;;;;15.10;4.03;;;18.60;99.90;;;;;;5038079;28;20036;-81
2022/05/15 07:35:44;;;;;;;15.57;3.58;;;18.80;99.90;;;;;;5051532;28;20070;-82
2022/05/15 07:38:10;;;;;;;11.82;3.63;;;18.90;99.90;;;;;;5055116;28;20040;-82
2022/05/15 07:40:36;;;;;;;15.05;3.33;;;19.00;99.90;;;;;;5054519;28;20538;-83
2022/05/15 07:43:05;;;;;;;9.65;2.80;;;19.20;99.90;;;;;;5054422;28;20059;-83
2022/05/15 07:45:31;;;;;;;12.00;3.20;;;19.30;99.90;;;;;;5052293;28;20124;-82
2022/05/15 07:47:57;;;;;;;12.07;3.40;;;19.30;99.90;;;;;;5002829;28;20041;-82
2022/05/15 07:50:23;;;;;;;10.40;3.35;;;19.40;99.90;;;;;;5054529;28;20044;-82
2022/05/15 07:52:49;;;;;;;11.90;3.25;;;19.70;99.90;;;;;;5037497;28;20032;-83
2022/05/15 07:55:14;;;;;;;10.10;3.67;;;19.60;99.90;;;;;;5054384;28;20056;-81
2022/05/15 07:57:40;;;;;;;11.05;3.30;;;19.80;99.90;;;;;;5037756;28;20511;-82
2022/05/15 08:00:09;;;;;;;13.25;3.65;;;19.80;99.90;;;;;;5037444;28;20454;-82
2022/05/15 08:02:36;;;;;;;15.15;3.50;;;20.10;99.90;;;;;;5019127;28;20039;-82
2022/05/15 08:08:09;;;;;;;10.60;3.17;;;20.10;99.90;;;;;;5053443;28;20056;-83
2022/05/15 08:10:38;;;;;;;15.23;3.60;;;20.50;99.90;;;;;;5053698;28;20040;-83
2022/05/15 08:13:05;;;;;;;13.70;3.35;;;20.80;99.90;;;;;;5054056;28;20146;-82
2022/05/15 08:15:32;;;;;;;11.38;3.53;;;20.70;99.90;;;;;;5054211;28;20582;-82
2022/05/15 08:23:34;;;;;;;14.00;4.05;;;20.70;99.90;;;;;;5037475;28;20165;-83
2022/05/15 08:26:00;;;;;;;13.55;3.35;;;21.00;99.90;;;;;;5036717;28;20036;-82
2022/05/15 08:28:26;;;;;;;12.63;3.30;;;21.20;99.90;;;;;;5053503;28;20036;-83
2022/05/15 08:30:52;;;;;;;;;;;21.30;99.90;;;;;;5037230;28;20465;-83
2022/05/15 08:33:17;;;;;;;12.38;3.55;;;21.60;99.90;;;;;;5036996;28;20007;-83
2022/05/15 08:35:43;;;;;;;;;;;21.90;99.90;;;;;;5036682;28;20880;-83
2022/05/15 08:38:09;;;;;;;12.18;3.65;;;21.80;99.90;;;;;;5052980;28;19962;-82
2022/05/15 08:41:00;;;;;;;12.35;3.40;;;21.80;99.90;;;;;;5036940;28;20051;-83
2022/05/15 08:43:46;;;;;;;10.23;2.72;;;22.10;99.90;;;;;;5053382;28;20561;-82
2022/05/15 08:46:26;;;;;;;12.43;3.60;;;22.30;99.90;;;;;;5034473;28;20393;-82
2022/05/15 08:48:57;;;;;;;10.80;3.35;;;22.20;99.90;;;;;;5035296;28;20502;-83
2022/05/15 08:51:23;;;;;;;9.95;2.53;;;22.20;99.90;;;;;;5036716;28;20076;-83
2022/05/15 08:53:50;;;;;;;;;;;22.10;99.90;;;;;;5021177;28;20071;-82
2022/05/15 08:56:16;;;;;;;10.65;2.67;;;22.50;99.90;;;;;;5053152;28;19921;-82
2022/05/15 08:58:48;;;;;;;10.80;2.97;;;22.60;99.90;;;;;;5036979;28;20036;-82
2022/05/15 09:01:18;;;;;;;11.00;2.83;;;22.90;99.20;;;;;;5053268;28;20401;-83
2022/05/15 09:03:44;;;;;;;9.20;2.72;;;23.30;99.20;;;;;;5053274;28;20051;-82
2022/05/15 09:06:15;;;;;;;;;;;23.20;98.50;;;;;;5053212;28;20442;-83
2022/05/15 09:09:14;;;;;;;12.23;3.35;;;23.00;97.30;;;;;;5053358;28;19923;-82
2022/05/15 09:12:05;;;;;;;11.68;3.03;;;23.10;97.10;;;;;;5053048;28;20049;-83
2022/05/15 09:14:57;;;;;;;11.40;3.05;;;23.30;97.40;;;;;;5069089;28;20480;-82
2022/05/15 09:17:50;;;;;;;9.23;2.88;;;22.90;96.50;;;;;;5034855;28;20056;-82
2022/05/15 09:20:28;;;;;;;13.52;2.90;;;23.00;96.50;;;;;;5050865;28;20071;-82
2022/05/15 09:23:20;;;;;;;12.65;2.67;;;23.20;96.20;;;;;;5051152;28;20389;-82
2022/05/15 09:26:06;;;;;;;10.80;2.90;;;23.50;96.00;;;;;;5086171;28;20041;-82
2022/05/15 09:29:05;;;;;;;9.45;2.35;;;23.70;94.90;;;;;;5050558;28;20064;-82
2022/05/15 09:31:34;;;;;;;11.20;2.72;;;23.80;95.30;;;;;;5032023;28;20435;-81
2022/05/15 09:34:07;;;;;;;10.80;2.58;;;23.90;95.20;;;;;;5050399;28;20115;-82
2022/05/15 09:36:35;;;;;;;10.40;2.60;;;23.90;94.50;;;;;;5052708;28;20381;-83
2022/05/15 09:39:13;;;;;;;9.02;2.50;;;24.20;94.20;;;;;;5034072;28;20388;-81
2022/05/15 09:44:27;;;;;;;10.32;2.97;;;24.70;94.20;;;;;;5038838;28;20047;-83
2022/05/15 09:47:03;;;;;;;9.15;2.40;;;24.40;93.30;;;;;;5036009;28;20037;-82
2022/05/15 09:49:33;;;;;;;10.82;2.58;;;24.50;93.20;;;;;;5056695;28;20115;-82
2022/05/15 09:52:01;;;;;;;13.90;3.05;;;24.70;93.10;;;;;;5054799;28;20435;-82
2022/05/15 09:54:47;;;;;;;11.68;3.28;;;24.60;92.80;;;;;;5056294;28;20059;-82
2022/05/15 09:57:19;;;;;;;10.80;2.95;;;24.60;92.30;;;;;;5053823;28;20081;-81
2022/05/15 09:59:59;;;;;;;13.35;2.85;;;24.70;93.10;;;;;;5056187;28;20050;-82
2022/05/15 10:02:42;;;;;;;11.30;2.72;;;24.50;92.30;;;;;;5056196;28;20091;-82
2022/05/15 10:05:17;;;;;;;8.02;2.38;;;24.60;92.00;;;;;;5056052;28;20067;-82
2022/05/15 10:07:51;;;;;;;10.68;2.75;;;24.80;91.70;;;;;;5039834;28;20074;-82
2022/05/15 10:10:24;;;;;;;11.15;2.40;;;24.80;91.30;;;;;;5054694;28;20040;-81
2022/05/15 10:12:59;;;;;;;9.25;2.60;;;25.00;91.60;;;;;;5054001;28;20094;-82
2022/05/15 10:15:32;;;;;;;10.10;3.27;;;25.00;91.00;;;;;;5054293;28;20061;-82
2022/05/15 10:18:03;;;;;;;11.80;2.80;;;25.40;91.90;;;;;;5052453;28;20057;-82
2022/05/15 10:20:34;;;;;;;10.48;3.03;;;25.40;90.90;;;;;;5052656;28;20135;-81
2022/05/15 10:23:11;;;;;;;11.15;2.88;;;25.70;91.60;;;;;;5052775;28;20477;-82
2022/05/15 10:25:53;;;;;;;8.65;2.40;;;26.00;91.50;;;;;;5052711;28;20120;-82
2022/05/15 10:28:24;;;;;;;10.10;2.88;;;25.70;91.10;;;;;;5052175;28;20045;-81
2022/05/15 10:31:32;;;;;;;9.80;2.70;;;25.70;90.40;;;;;;5035606;28;20040;-81
2022/05/15 10:34:11;;;;;;;11.18;2.78;;;25.60;90.30;;;;;;5051600;28;20134;-82
2022/05/15 10:37:06;;;;;;;11.45;3.03;;;25.80;89.50;;;;;;5050336;28;20082;-81
2022/05/15 10:40:01;;;;;;;10.25;2.78;;;25.90;89.10;;;;;;5035809;28;20493;-82
2022/05/15 10:42:48;;;;;;;10.25;3.42;;;25.90;89.50;;;;;;5052052;28;20052;-82
2022/05/15 10:45:17;;;;;;;;;;;26.00;89.10;;;;;;5051263;28;20048;-82
2022/05/15 10:47:51;;;;;;;11.98;2.85;;;25.50;88.90;;;;;;5035566;28;19916;-82
2022/05/15 10:50:43;;;;;;;11.40;2.97;;;25.80;90.50;;;;;;5051932;28;20033;-81
2022/05/15 10:59:45;;;;;;;11.35;3.20;;;26.60;88.60;;;;;;5082896;28;19916;-82
2022/05/15 11:02:39;;;;;;;9.32;2.45;;;26.30;88.00;;;;;;5033084;28;20128;-82
2022/05/15 11:05:13;;;;;;;9.65;3.03;;;26.30;87.00;;;;;;5051869;28;20048;-82
2022/05/15 11:07:48;;;;;;;9.32;2.83;;;26.50;87.60;;;;;;5035420;28;20032;-83
2022/05/15 11:10:32;;;;;;;10.45;3.00;;;26.50;87.10;;;;;;5050316;28;20121;-82
2022/05/15 11:13:25;;;;;;;10.23;2.80;;;26.80;87.50;;;;;;5051555;28;20108;-81
2022/05/15 11:16:23;;;;;;;14.00;2.97;;;26.80;85.00;;;;;;5051605;28;20048;-82
2022/05/15 11:19:31;;;;;;;10.45;2.70;;;27.00;85.40;;;;;;5050797;28;20056;-82
2022/05/15 11:22:18;;;;;;;8.80;2.58;;;27.30;85.40;;;;;;5034947;28;20389;-83
2022/05/15 11:25:05;;;;;;;8.13;2.30;;;27.20;86.20;;;;;;5051813;28;20110;-82
2022/05/15 11:27:36;;;;;;;9.20;2.47;;;27.20;86.70;;;;;;5035186;28;20425;-81
2022/05/15 11:30:27;;;;;;;8.90;2.33;;;27.10;85.80;;;;;;5051448;28;20041;-81
2022/05/15 11:32:53;;;;;;;11.68;2.78;;;26.90;86.20;;;;;;5050740;28;20049;-81
2022/05/15 11:35:19;;;;;;;9.55;2.20;;;27.30;86.00;;;;;;5051225;28;20048;-82
2022/05/15 11:37:53;;;;;;;9.23;2.47;;;27.00;84.60;;;;;;5051637;28;20037;-82
2022/05/15 11:40:44;;;;;;;9.73;2.45;;;26.90;84.30;;;;;;5034518;28;20121;-81
2022/05/15 11:43:29;;;;;;;7.60;2.05;;;26.40;84.40;;;;;;5051286;28;20439;-81
2022/05/15 11:45:59;;;;;;;9.48;2.15;;;27.00;82.70;;;;;;5050935;28;20057;-82
2022/05/15 11:48:49;;;;;;;10.80;2.85;;;26.90;82.90;;;;;;5034275;28;20045;-82
2022/05/15 11:51:14;;;;;;;7.00;2.40;;;27.30;82.60;;;;;;5051497;28;20044;-81
2022/05/15 11:53:58;;;;;;;7.38;2.20;;;27.10;82.80;;;;;;5050964;28;20044;-82
2022/05/15 11:56:40;;;;;;;6.97;2.30;;;26.90;83.10;;;;;;5066697;28;20498;-82
2022/05/15 11:59:29;;;;;;;8.75;2.03;;;27.00;83.40;;;;;;5033744;28;20033;-82
2022/05/15 12:02:11;;;;;;;7.82;2.03;;;27.00;83.90;;;;;;5050887;28;20044;-82
2022/05/15 12:04:37;;;;;;;6.65;2.38;;;26.20;82.20;;;;;;5031010;28;20531;-83
2022/05/15 12:07:02;;;;;;;8.00;2.40;;;26.00;83.50;;;;;;5050984;28;20032;-83
2022/05/15 12:09:39;;;;;;;8.18;2.10;;;26.10;83.30;;;;;;5050982;28;20525;-82
2022/05/15 12:12:20;;;;;;;6.97;2.13;;;26.00;81.20;;;;;;5049474;28;20033;-82
2022/05/15 12:15:09;;;;;;;6.85;2.28;;;26.00;82.20;;;;;;5050725;28;20120;-82
2022/05/15 12:17:43;;;;;;;8.30;2.28;;;26.40;82.70;;;;;;5050641;28;20439;-82
2022/05/15 12:20:20;;;;;;;7.38;2.08;;;26.80;82.70;;;;;;5049574;28;20512;-83
2022/05/15 12:22:59;;;;;;;5.88;1.88;;;26.70;81.50;;;;;;5050537;28;20072;-81
2022/05/15 12:25:30;;;;;;;9.18;2.35;;;26.90;83.60;;;;;;5048710;28;20395;-82
2022/05/15 12:31:11;;;;;;;9.40;2.15;;;27.00;83.40;;;;;;5048871;28;20103;-82
2022/05/15 12:33:41;;;;;;;5.93;1.90;;;26.80;83.30;;;;;;5048797;28;20041;-82
2022/05/15 12:36:15;;;;;;;6.55;1.85;;;26.80;81.80;;;;;;5050451;28;20087;-82
2022/05/15 12:38:51;;;;;;;6.88;2.03;;;27.30;81.80;;;;;;5050123;28;20045;-81
2022/05/15 12:41:41;;;;;;;7.72;2.40;;;27.00;81.60;;;;;;5050103;28;20037;-81
2022/05/15 12:44:10;;;;;;;9.52;2.40;;;27.20;82.80;;;;;;5081572;28;20099;-81
2022/05/15 12:46:43;;;;;;;4.80;1.70;;;27.10;81.00;;;;;;5033045;28;20041;-81
2022/05/15 12:49:09;;;;;;;7.45;1.95;;;27.10;83.40;;;;;;5047796;28;20036;-81
2022/05/15 12:51:36;;;;;;;6.18;1.80;;;27.00;82.20;;;;;;5033088;28;20029;-81
2022/05/15 12:54:04;;;;;;;5.97;1.60;;;26.80;80.40;;;;;;5050148;28;20043;-81
2022/05/15 12:56:35;;;;;;;7.22;2.10;;;26.70;82.10;;;;;;5033102;28;20045;-81
2022/05/15 12:59:17;;;;;;;6.40;1.63;;;26.80;81.40;;;;;;5050126;28;20037;-82
2022/05/15 13:01:45;;;;;;;8.95;2.00;;;27.00;81.70;;;;;;5047706;28;20048;-81
2022/05/15 13:04:20;;;;;;;6.80;1.83;;;27.20;80.30;;;;;;5049894;28;20052;-82
2022/05/15 13:06:53;;;;;;;6.53;1.90;;;27.10;80.50;;;;;;5048236;28;20542;-82
2022/05/15 13:09:23;;;;;;;6.95;2.00;;;27.10;81.70;;;;;;5049465;28;20119;-81
2022/05/15 13:11:52;;;;;;;6.40;1.75;;;27.20;82.00;;;;;;5048791;28;20040;-81
2022/05/15 13:14:23;;;;;;;8.63;1.80;;;26.90;81.80;;;;;;5048966;28;20485;-81
2022/05/15 13:16:51;;;;;;;8.95;2.00;;;26.40;80.60;;;;;;5049841;28;20465;-82
2022/05/15 13:19:26;;;;;;;4.55;1.60;;;26.20;81.30;;;;;;5049304;28;20103;-82
2022/05/15 13:21:53;;;;;;;6.97;1.90;;;27.20;81.30;;;;;;5049039;28;20067;-82
2022/05/15 13:24:20;;;;;;;6.03;1.80;;;27.30;80.60;;;;;;5049177;28;20055;-83
2022/05/15 13:26:49;;;;;;;4.88;1.70;;;27.40;81.20;;;;;;5033003;28;20116;-82